sensor_id;sensor_type;location;lat;lon;timestamp;pressure;altitude;pressure_sealevel;temperature;humidity
3796;BME280;1913;50.660;7.834;2022-09-11T00:00:34;97242.03;;;14.43;100.00
3796;BME280;1913;50.660;7.834;2022-09-11T00:03:00;97249.19;;;14.43;100.00
3796;BME280;1913;50.660;7.834;2022-09-11T00:05:25;97260.38;;;14.26;100.00
3796;BME280;1913;50.660;7.834;2022-09-11T00:07:50;97262.56;;;14.29;100.00
3796;BME280;1913;50.660;7.834;2022-09-11T00:10:16;97265.38;;;14.34;100.00
3796;BME280;1913;50.660;7.834;2022-09-11T00:12:42;97263.28;;;14.36;100.00
3796;BME280;1913;50.660;7.834;2022-09-11T00:15:09;97260.63;;;14.36;100.00
3796;BME280;1913;50.660;7.834;2022-09-11T00:17:35;97262.47;;;14.36;100.00
3796;BME280;1913;50.660;7.834;2022-09-11T00:20:01;97260.19;;;14.40;100.00
3796;BME280;1913;50.660;7.834;2022-09-11T00:22:26;97253.63;;;14.30;100.00
3796;BME280;1913;50.660;7.834;2022-09-11T00:24:52;97255.00;;;14.33;100.00
3796;BME280;1913;50.660;7.834;2022-09-11T00:27:19;97262.81;;;14.28;100.00
3796;BME280;1913;50.660;7.834;2022-09-11T00:29:44;97258.66;;;14.20;100.00
3796;BME280;1913;50.660;7.834;2022-09-11T00:32:10;97261.09;;;14.33;100.00
3796;BME280;1913;50.660;7.834;2022-09-11T00:34:35;97259.81;;;14.24;100.00
3796;BME280;1913;50.660;7.834;2022-09-11T00:37:01;97265.28;;;14.23;100.00
3796;BME280;1913;50.660;7.834;2022-09-11T00:39:27;97262.81;;;14.28;100.00
3796;BME280;1913;50.660;7.834;2022-09-11T00:41:53;97252.31;;;14.21;100.00
3796;BME280;1913;50.660;7.834;2022-09-11T00:46:50;97252.00;;;14.29;100.00
3796;BME280;1913;50.660;7.834;2022-09-11T00:49:33;97255.69;;;14.28;100.00
3796;BME280;1913;50.660;7.834;2022-09-11T00:54:36;97255.56;;;14.23;100.00
3796;BME280;1913;50.660;7.834;2022-09-11T00:57:06;97252.63;;;14.13;100.00
3796;BME280;1913;50.660;7.834;2022-09-11T00:59:33;97257.13;;;14.12;100.00
3796;BME280;1913;50.660;7.834;2022-09-11T01:01:59;97254.47;;;14.12;100.00
3796;BME280;1913;50.660;7.834;2022-09-11T01:04:25;97250.78;;;14.13;100.00
3796;BME280;1913;50.660;7.834;2022-09-11T01:06:55;97254.25;;;14.14;100.00
3796;BME280;1913;50.660;7.834;2022-09-11T01:09:25;97250.78;;;14.13;100.00
3796;BME280;1913;50.660;7.834;2022-09-11T01:12:31;97263.13;;;14.20;100.00
3796;BME280;1913;50.660;7.834;2022-09-11T01:15:13;97260.97;;;14.28;100.00
3796;BME280;1913;50.660;7.834;2022-09-11T01:30:09;97275.44;;;14.26;100.00
3796;BME280;1913;50.660;7.834;2022-09-11T01:38:21;97284.44;;;14.36;100.00
3796;BME280;1913;50.660;7.834;2022-09-11T01:43:25;97288.00;;;14.30;100.00
3796;BME280;1913;50.660;7.834;2022-09-11T01:45:56;97288.72;;;14.37;100.00
3796;BME280;1913;50.660;7.834;2022-09-11T01:48:25;97288.19;;;14.29;100.00
3796;BME280;1913;50.660;7.834;2022-09-11T01:50:57;97291.91;;;14.40;100.00
3796;BME280;1913;50.660;7.834;2022-09-11T01:53:31;97302.28;;;14.41;100.00
3796;BME280;1913;50.660;7.834;2022-09-11T01:56:01;97293.28;;;14.30;100.00
3796;BME280;1913;50.660;7.834;2022-09-11T01:58:30;97294.44;;;14.34;100.00
3796;BME280;1913;50.660;7.834;2022-09-11T02:01:03;97296.84;;;14.36;100.00
3796;BME280;1913;50.660;7.834;2022-09-11T02:03:34;97298.59;;;14.42;100.00
3796;BME280;1913;50.660;7.834;2022-09-11T02:06:08;97298.94;;;14.34;100.00
3796;BME280;1913;50.660;7.834;2022-09-11T02:11:10;97302.66;;;14.45;100.00
3796;BME280;1913;50.660;7.834;2022-09-11T02:14:24;97304.81;;;14.48;100.00
3796;BME280;1913;50.660;7.834;2022-09-11T02:16:38;97308.91;;;14.50;100.00
3796;BME280;1913;50.660;7.834;2022-09-11T02:19:16;97307.44;;;14.36;100.00
3796;BME280;1913;50.660;7.834;2022-09-11T02:21:43;97312.94;;;14.53;100.00
3796;BME280;1913;50.660;7.834;2022-09-11T02:24:09;97306.31;;;14.44;100.00
3796;BME280;1913;50.660;7.834;2022-09-11T02:26:43;97308.94;;;14.44;100.00
3796;BME280;1913;50.660;7.834;2022-09-11T02:29:10;97309.91;;;14.49;100.00
3796;BME280;1913;50.660;7.834;2022-09-11T02:31:37;97308.91;;;14.50;100.00
3796;BME280;1913;50.660;7.834;2022-09-11T02:34:03;97310.34;;;14.46;100.00
3796;BME280;1913;50.660;7.834;2022-09-11T02:50:59;97333.78;;;14.43;100.00
3796;BME280;1913;50.660;7.834;2022-09-11T02:53:34;97331.56;;;14.40;100.00
3796;BME280;1913;50.660;7.834;2022-09-11T02:56:14;97332.47;;;14.33;100.00
3796;BME280;1913;50.660;7.834;2022-09-11T02:58:49;97335.38;;;14.44;100.00
3796;BME280;1913;50.660;7.834;2022-09-11T03:01:20;97336.94;;;14.33;100.00
3796;BME280;1913;50.660;7.834;2022-09-11T03:03:45;97343.91;;;14.46;100.00
3796;BME280;1913;50.660;7.834;2022-09-11T03:06:15;97347.81;;;14.43;100.00
3796;BME280;1913;50.660;7.834;2022-09-11T03:08:41;97341.59;;;14.37;100.00
3796;BME280;1913;50.660;7.834;2022-09-11T03:11:07;97344.34;;;14.43;100.00
3796;BME280;1913;50.660;7.834;2022-09-11T03:13:36;97335.94;;;14.52;100.00
3796;BME280;1913;50.660;7.834;2022-09-11T03:16:03;97337.66;;;14.58;100.00
3796;BME280;1913;50.660;7.834;2022-09-11T03:18:29;97342.06;;;14.65;100.00
3796;BME280;1913;50.660;7.834;2022-09-11T03:20:54;97342.38;;;14.56;100.00
3796;BME280;1913;50.660;7.834;2022-09-11T03:23:20;97344.22;;;14.56;100.00
3796;BME280;1913;50.660;7.834;2022-09-11T03:25:45;97338.34;;;14.54;100.00
3796;BME280;1913;50.660;7.834;2022-09-11T03:28:11;97340.78;;;14.55;100.00
3796;BME280;1913;50.660;7.834;2022-09-11T03:30:36;97335.38;;;14.62;100.00
3796;BME280;1913;50.660;7.834;2022-09-11T03:33:03;97347.34;;;14.65;100.00
3796;BME280;1913;50.660;7.834;2022-09-11T03:35:29;97345.22;;;14.55;100.00
3796;BME280;1913;50.660;7.834;2022-09-11T03:37:54;97348.97;;;14.47;100.00
3796;BME280;1913;50.660;7.834;2022-09-11T03:40:20;97356.16;;;14.58;100.00
3796;BME280;1913;50.660;7.834;2022-09-11T03:42:46;97349.19;;;14.64;100.00
3796;BME280;1913;50.660;7.834;2022-09-11T03:45:11;97349.06;;;14.59;100.00
3796;BME280;1913;50.660;7.834;2022-09-11T03:47:38;97345.16;;;14.61;100.00
3796;BME280;1913;50.660;7.834;2022-09-11T03:50:05;97347.88;;;14.55;100.00
3796;BME280;1913;50.660;7.834;2022-09-11T03:52:31;97347.44;;;14.58;100.00
3796;BME280;1913;50.660;7.834;2022-09-11T03:54:56;97345.38;;;14.60;100.00
3796;BME280;1913;50.660;7.834;2022-09-11T03:57:22;97345.75;;;14.64;100.00
3796;BME280;1913;50.660;7.834;2022-09-11T03:59:47;97341.50;;;14.63;100.00
3796;BME280;1913;50.660;7.834;2022-09-11T04:02:12;97343.53;;;14.60;100.00
3796;BME280;1913;50.660;7.834;2022-09-11T04:04:38;97347.88;;;14.55;100.00
3796;BME280;1913;50.660;7.834;2022-09-11T04:07:03;97342.16;;;14.58;100.00
3796;BME280;1913;50.660;7.834;2022-09-11T04:09:29;97341.84;;;14.48;100.00
3796;BME280;1913;50.660;7.834;2022-09-11T04:11:56;97346.28;;;14.54;100.00
3796;BME280;1913;50.660;7.834;2022-09-11T04:14:21;97344.44;;;14.54;100.00
3796;BME280;1913;50.660;7.834;2022-09-11T04:16:47;97352.53;;;14.59;100.00
3796;BME280;1913;50.660;7.834;2022-09-11T04:19:13;97347.13;;;14.48;100.00
3796;BME280;1913;50.660;7.834;2022-09-11T04:21:39;97353.25;;;14.48;100.00
3796;BME280;1913;50.660;7.834;2022-09-11T04:24:04;97351.56;;;14.54;100.00
3796;BME280;1913;50.660;7.834;2022-09-11T04:26:31;97351.56;;;14.54;100.00
3796;BME280;1913;50.660;7.834;2022-09-11T04:28:57;97350.88;;;14.58;100.00
3796;BME280;1913;50.660;7.834;2022-09-11T04:31:23;97357.28;;;14.51;100.00
3796;BME280;1913;50.660;7.834;2022-09-11T04:33:50;97356.41;;;14.57;100.00
3796;BME280;1913;50.660;7.834;2022-09-11T04:36:17;97353.53;;;14.58;100.00
3796;BME280;1913;50.660;7.834;2022-09-11T04:38:43;97354.00;;;14.55;100.00
3796;BME280;1913;50.660;7.834;2022-09-11T04:41:09;97364.09;;;14.58;100.00
3796;BME280;1913;50.660;7.834;2022-09-11T04:43:38;97368.06;;;14.68;100.00
3796;BME280;1913;50.660;7.834;2022-09-11T04:46:12;97362.06;;;14.60;100.00
3796;BME280;1913;50.660;7.834;2022-09-11T04:48:46;97364.03;;;14.65;100.00
3796;BME280;1913;50.660;7.834;2022-09-11T04:51:19;97370.16;;;14.66;100.00
3796;BME280;1913;50.660;7.834;2022-09-11T04:53:45;97371.38;;;14.63;100.00
3796;BME280;1913;50.660;7.834;2022-09-11T04:56:12;97376.38;;;14.71;100.00
3796;BME280;1913;50.660;7.834;2022-09-11T04:58:38;97377.97;;;14.72;100.00
3796;BME280;1913;50.660;7.834;2022-09-11T05:01:09;97379.16;;;14.76;100.00
3796;BME280;1913;50.660;7.834;2022-09-11T05:03:35;97377.75;;;14.74;100.00
3796;BME280;1913;50.660;7.834;2022-09-11T05:06:08;97378.19;;;14.71;100.00
3796;BME280;1913;50.660;7.834;2022-09-11T05:08:34;97380.72;;;14.66;100.00
3796;BME280;1913;50.660;7.834;2022-09-11T05:11:01;97381.09;;;14.69;100.00
3796;BME280;1913;50.660;7.834;2022-09-11T05:13:27;97386.25;;;14.76;100.00
3796;BME280;1913;50.660;7.834;2022-09-11T05:15:52;97384.81;;;14.80;100.00
3796;BME280;1913;50.660;7.834;2022-09-11T05:18:19;97387.91;;;14.77;100.00
3796;BME280;1913;50.660;7.834;2022-09-11T05:20:45;97385.38;;;14.82;100.00
3796;BME280;1913;50.660;7.834;2022-09-11T05:23:10;97392.78;;;14.92;100.00
3796;BME280;1913;50.660;7.834;2022-09-11T05:25:37;97388.41;;;14.97;100.00
3796;BME280;1913;50.660;7.834;2022-09-11T05:28:03;97392.13;;;15.08;100.00
3796;BME280;1913;50.660;7.834;2022-09-11T05:30:30;97390.88;;;15.11;100.00
3796;BME280;1913;50.660;7.834;2022-09-11T05:32:55;97395.72;;;15.14;100.00
3796;BME280;1913;50.660;7.834;2022-09-11T05:35:24;97383.19;;;15.21;100.00
3796;BME280;1913;50.660;7.834;2022-09-11T05:37:49;97393.34;;;15.24;100.00
3796;BME280;1913;50.660;7.834;2022-09-11T05:40:17;97402.97;;;15.18;100.00
3796;BME280;1913;50.660;7.834;2022-09-11T05:42:44;97402.78;;;15.31;100.00
3796;BME280;1913;50.660;7.834;2022-09-11T05:45:09;97405.69;;;15.42;100.00
3796;BME280;1913;50.660;7.834;2022-09-11T05:47:34;97407.78;;;15.51;100.00
3796;BME280;1913;50.660;7.834;2022-09-11T05:50:00;97406.16;;;15.50;100.00
3796;BME280;1913;50.660;7.834;2022-09-11T05:52:27;97418.03;;;15.60;100.00
3796;BME280;1913;50.660;7.834;2022-09-11T05:54:52;97419.19;;;15.64;100.00
3796;BME280;1913;50.660;7.834;2022-09-11T05:57:18;97424.13;;;15.60;100.00
3796;BME280;1913;50.660;7.834;2022-09-11T05:59:45;97426.66;;;15.55;100.00
3796;BME280;1913;50.660;7.834;2022-09-11T06:02:11;97433.44;;;15.51;100.00
3796;BME280;1913;50.660;7.834;2022-09-11T06:04:36;97432.09;;;15.60;100.00
3796;BME280;1913;50.660;7.834;2022-09-11T06:07:02;97435.31;;;15.62;100.00
3796;BME280;1913;50.660;7.834;2022-09-11T06:09:27;97442.09;;;15.58;100.00
3796;BME280;1913;50.660;7.834;2022-09-11T06:11:53;97439.22;;;15.60;100.00
3796;BME280;1913;50.660;7.834;2022-09-11T06:14:18;97440.84;;;15.61;100.00
3796;BME280;1913;50.660;7.834;2022-09-11T06:16:46;97450.00;;;15.46;100.00
3796;BME280;1913;50.660;7.834;2022-09-11T06:19:12;97455.66;;;15.50;100.00
3796;BME280;1913;50.660;7.834;2022-09-11T06:21:37;97447.59;;;15.45;100.00
3796;BME280;1913;50.660;7.834;2022-09-11T06:24:03;97463.41;;;15.51;100.00
3796;BME280;1913;50.660;7.834;2022-09-11T06:26:29;97457.63;;;15.54;100.00
3796;BME280;1913;50.660;7.834;2022-09-11T06:28:55;97454.50;;;15.46;100.00
3796;BME280;1913;50.660;7.834;2022-09-11T06:31:23;97452.28;;;15.73;100.00
3796;BME280;1913;50.660;7.834;2022-09-11T06:33:50;97457.78;;;15.60;100.00
3796;BME280;1913;50.660;7.834;2022-09-11T06:36:17;97452.16;;;15.68;100.00
3796;BME280;1913;50.660;7.834;2022-09-11T06:38:44;97458.81;;;15.59;100.00
3796;BME280;1913;50.660;7.834;2022-09-11T06:41:13;97459.44;;;15.42;100.00
3796;BME280;1913;50.660;7.834;2022-09-11T06:43:40;97460.69;;;15.40;100.00
3796;BME280;1913;50.660;7.834;2022-09-11T06:46:08;97465.78;;;15.41;100.00
3796;BME280;1913;50.660;7.834;2022-09-11T06:48:36;97468.44;;;15.41;100.00
3796;BME280;1913;50.660;7.834;2022-09-11T06:51:05;97469.72;;;15.50;100.00
3796;BME280;1913;50.660;7.834;2022-09-11T06:53:32;97472.94;;;15.41;100.00
3796;BME280;1913;50.660;7.834;2022-09-11T06:56:02;97475.69;;;15.46;100.00
3796;BME280;1913;50.660;7.834;2022-09-11T06:58:29;97465.66;;;15.36;100.00
3796;BME280;1913;50.660;7.834;2022-09-11T07:01:00;97466.56;;;15.30;100.00
3796;BME280;1913;50.660;7.834;2022-09-11T07:03:25;97472.44;;;15.32;100.00
3796;BME280;1913;50.660;7.834;2022-09-11T07:05:53;97481.97;;;15.33;100.00
3796;BME280;1913;50.660;7.834;2022-09-11T07:08:21;97480.34;;;15.20;100.00
3796;BME280;1913;50.660;7.834;2022-09-11T07:10:47;97489.00;;;15.27;100.00
3796;BME280;1913;50.660;7.834;2022-09-11T07:13:12;97480.88;;;15.41;100.00
3796;BME280;1913;50.660;7.834;2022-09-11T07:15:37;97478.38;;;15.57;100.00
3796;BME280;1913;50.660;7.834;2022-09-11T07:18:03;97478.69;;;15.79;100.00
3796;BME280;1913;50.660;7.834;2022-09-11T07:20:31;97486.75;;;15.73;100.00
3796;BME280;1913;50.660;7.834;2022-09-11T07:22:57;97487.19;;;15.82;100.00
3796;BME280;1913;50.660;7.834;2022-09-11T07:25:25;97487.56;;;15.85;100.00
3796;BME280;1913;50.660;7.834;2022-09-11T07:27:54;97485.03;;;15.90;100.00
3796;BME280;1913;50.660;7.834;2022-09-11T07:30:20;97492.53;;;16.05;100.00
3796;BME280;1913;50.660;7.834;2022-09-11T07:32:45;97485.28;;;16.24;100.00
3796;BME280;1913;50.660;7.834;2022-09-11T07:35:10;97490.47;;;16.31;100.00
3796;BME280;1913;50.660;7.834;2022-09-11T07:37:37;97487.34;;;16.22;100.00
3796;BME280;1913;50.660;7.834;2022-09-11T07:40:03;97495.75;;;16.31;100.00
3796;BME280;1913;50.660;7.834;2022-09-11T07:42:29;97490.69;;;16.17;100.00
3796;BME280;1913;50.660;7.834;2022-09-11T07:44:58;97497.50;;;16.13;100.00
3796;BME280;1913;50.660;7.834;2022-09-11T07:47:25;97490.91;;;16.04;100.00
3796;BME280;1913;50.660;7.834;2022-09-11T07:49:51;97497.72;;;16.12;100.00
3796;BME280;1913;50.660;7.834;2022-09-11T07:52:16;97491.75;;;16.04;100.00
3796;BME280;1913;50.660;7.834;2022-09-11T07:54:44;97496.47;;;16.38;100.00
3796;BME280;1913;50.660;7.834;2022-09-11T07:57:11;97501.41;;;16.34;100.00
3796;BME280;1913;50.660;7.834;2022-09-11T07:59:36;97501.19;;;16.36;100.00
3796;BME280;1913;50.660;7.834;2022-09-11T08:02:02;97489.41;;;16.43;100.00
3796;BME280;1913;50.660;7.834;2022-09-11T08:04:27;97502.78;;;16.48;100.00
3796;BME280;1913;50.660;7.834;2022-09-11T08:06:57;97495.31;;;16.34;100.00
3796;BME280;1913;50.660;7.834;2022-09-11T08:09:25;97494.50;;;15.98;100.00
3796;BME280;1913;50.660;7.834;2022-09-11T08:11:51;97501.59;;;15.86;100.00
3796;BME280;1913;50.660;7.834;2022-09-11T08:14:21;97508.84;;;15.78;100.00
3796;BME280;1913;50.660;7.834;2022-09-11T08:16:49;97499.91;;;15.61;100.00
3796;BME280;1913;50.660;7.834;2022-09-11T08:19:17;97511.53;;;15.60;100.00
3796;BME280;1913;50.660;7.834;2022-09-11T08:21:43;97500.00;;;15.54;100.00
3796;BME280;1913;50.660;7.834;2022-09-11T08:24:11;97507.59;;;15.51;100.00
3796;BME280;1913;50.660;7.834;2022-09-11T08:26:37;97512.28;;;15.67;100.00
3796;BME280;1913;50.660;7.834;2022-09-11T08:29:02;97513.50;;;15.95;100.00
3796;BME280;1913;50.660;7.834;2022-09-11T08:31:28;97513.06;;;16.10;100.00
3796;BME280;1913;50.660;7.834;2022-09-11T08:33:55;97517.69;;;16.38;100.00
3796;BME280;1913;50.660;7.834;2022-09-11T08:36:21;97526.09;;;16.58;100.00
3796;BME280;1913;50.660;7.834;2022-09-11T08:38:46;97529.41;;;16.53;100.00
3796;BME280;1913;50.660;7.834;2022-09-11T08:41:34;97533.56;;;16.73;100.00
3796;BME280;1913;50.660;7.834;2022-09-11T08:46:31;97533.28;;;17.10;100.00
3796;BME280;1913;50.660;7.834;2022-09-11T08:49:20;97529.56;;;17.11;100.00
3796;BME280;1913;50.660;7.834;2022-09-11T08:51:48;97536.72;;;17.22;100.00
3796;BME280;1913;50.660;7.834;2022-09-11T08:54:31;97540.66;;;17.19;100.00
3796;BME280;1913;50.660;7.834;2022-09-11T08:57:23;97544.97;;;16.97;100.00
3796;BME280;1913;50.660;7.834;2022-09-11T09:00:08;97550.53;;;16.84;100.00
3796;BME280;1913;50.660;7.834;2022-09-11T09:10:55;97557.22;;;16.74;100.00
3796;BME280;1913;50.660;7.834;2022-09-11T09:19:01;97564.47;;;17.03;100.00
3796;BME280;1913;50.660;7.834;2022-09-11T09:24:14;97558.91;;;17.16;100.00
3796;BME280;1913;50.660;7.834;2022-09-11T09:26:51;97568.59;;;17.51;100.00
3796;BME280;1913;50.660;7.834;2022-09-11T09:29:34;97563.72;;;17.59;100.00
3796;BME280;1913;50.660;7.834;2022-09-11T09:32:09;97572.72;;;17.58;100.00
3796;BME280;1913;50.660;7.834;2022-09-11T09:34:42;97571.06;;;17.69;100.00
3796;BME280;1913;50.660;7.834;2022-09-11T09:37:21;97580.13;;;17.85;100.00
3796;BME280;1913;50.660;7.834;2022-09-11T09:39:47;97574.38;;;18.05;100.00
3796;BME280;1913;50.660;7.834;2022-09-11T09:47:14;97570.41;;;18.58;100.00
3796;BME280;1913;50.660;7.834;2022-09-11T09:49:41;97569.66;;;18.62;100.00
3796;BME280;1913;50.660;7.834;2022-09-11T09:52:21;97576.06;;;18.61;100.00
3796;BME280;1913;50.660;7.834;2022-09-11T09:55:01;97575.72;;;18.58;100.00
3796;BME280;1913;50.660;7.834;2022-09-11T09:57:33;97582.41;;;18.60;100.00
3796;BME280;1913;50.660;7.834;2022-09-11T10:00:14;97579.69;;;18.55;100.00
3796;BME280;1913;50.660;7.834;2022-09-11T10:02:44;97580.59;;;18.27;100.00
3796;BME280;1913;50.660;7.834;2022-09-11T10:05:23;97579.91;;;18.03;100.00
3796;BME280;1913;50.660;7.834;2022-09-11T10:07:55;97587.03;;;18.14;100.00
3796;BME280;1913;50.660;7.834;2022-09-11T10:12:55;97579.88;;;18.15;100.00
3796;BME280;1913;50.660;7.834;2022-09-11T10:15:22;97584.06;;;18.11;100.00
3796;BME280;1913;50.660;7.834;2022-09-11T10:17:48;97581.06;;;18.24;100.00
3796;BME280;1913;50.660;7.834;2022-09-11T10:22:40;97583.16;;;18.56;100.00
3796;BME280;1913;50.660;7.834;2022-09-11T10:25:13;97583.59;;;19.03;100.00
3796;BME280;1913;50.660;7.834;2022-09-11T10:30:28;97583.06;;;19.99;100.00
3796;BME280;1913;50.660;7.834;2022-09-11T10:32:59;97578.59;;;20.74;100.00
3796;BME280;1913;50.660;7.834;2022-09-11T10:35:26;97576.00;;;21.47;100.00
3796;BME280;1913;50.660;7.834;2022-09-11T10:38:07;97578.50;;;21.90;100.00
3796;BME280;1913;50.660;7.834;2022-09-11T10:40:40;97578.25;;;21.96;100.00
3796;BME280;1913;50.660;7.834;2022-09-11T10:46:35;97572.53;;;21.47;100.00
3796;BME280;1913;50.660;7.834;2022-09-11T10:51:32;97575.75;;;20.96;100.00
3796;BME280;1913;50.660;7.834;2022-09-11T10:57:03;97570.50;;;20.64;100.00
3796;BME280;1913;50.660;7.834;2022-09-11T10:59:46;97574.50;;;20.29;100.00
3796;BME280;1913;50.660;7.834;2022-09-11T11:02:30;97578.88;;;19.81;100.00
3796;BME280;1913;50.660;7.834;2022-09-11T11:05:02;97576.47;;;19.80;100.00
3796;BME280;1913;50.660;7.834;2022-09-11T11:07:33;97572.63;;;19.71;100.00
3796;BME280;1913;50.660;7.834;2022-09-11T11:10:35;97561.19;;;20.02;100.00
3796;BME280;1913;50.660;7.834;2022-09-11T11:34:07;97555.50;;;24.24;100.00
3796;BME280;1913;50.660;7.834;2022-09-11T11:36:42;97555.16;;;24.65;96.83
3796;BME280;1913;50.660;7.834;2022-09-11T11:42:24;97554.72;;;26.24;79.08
3796;BME280;1913;50.660;7.834;2022-09-11T11:44:56;97560.00;;;25.16;83.12
3796;BME280;1913;50.660;7.834;2022-09-11T11:47:37;97569.06;;;24.09;91.19
3796;BME280;1913;50.660;7.834;2022-09-11T11:53:27;97567.50;;;22.73;100.00
3796;BME280;1913;50.660;7.834;2022-09-11T11:56:25;97567.03;;;22.10;100.00
3796;BME280;1913;50.660;7.834;2022-09-11T11:59:45;97565.34;;;21.73;100.00
3796;BME280;1913;50.660;7.834;2022-09-11T12:04:41;97565.59;;;22.84;100.00
3796;BME280;1913;50.660;7.834;2022-09-11T12:07:32;97563.78;;;23.99;93.47
3796;BME280;1913;50.660;7.834;2022-09-11T12:10:02;97565.03;;;24.46;75.38
3796;BME280;1913;50.660;7.834;2022-09-11T12:12:43;97571.28;;;25.99;68.68
3796;BME280;1913;50.660;7.834;2022-09-11T12:15:23;97559.47;;;27.20;66.03
3796;BME280;1913;50.660;7.834;2022-09-11T12:20:44;97569.00;;;26.58;55.55
3796;BME280;1913;50.660;7.834;2022-09-11T12:28:30;97558.81;;;27.65;56.25
3796;BME280;1913;50.660;7.834;2022-09-11T12:30:57;97559.72;;;28.42;50.80
3796;BME280;1913;50.660;7.834;2022-09-11T12:39:17;97567.97;;;27.28;49.21
3796;BME280;1913;50.660;7.834;2022-09-11T12:41:43;97562.34;;;26.36;56.35
3796;BME280;1913;50.660;7.834;2022-09-11T12:49:52;97555.41;;;24.40;62.18
3796;BME280;1913;50.660;7.834;2022-09-11T12:52:26;97555.06;;;24.75;75.46
3796;BME280;1913;50.660;7.834;2022-09-11T12:54:53;97550.44;;;25.05;75.92
3796;BME280;1913;50.660;7.834;2022-09-11T12:57:27;97554.72;;;24.24;85.95
3796;BME280;1913;50.660;7.834;2022-09-11T12:59:57;97549.34;;;24.24;85.31
3796;BME280;1913;50.660;7.834;2022-09-11T13:02:49;97548.25;;;23.90;94.81
3796;BME280;1913;50.660;7.834;2022-09-11T13:05:36;97550.75;;;24.16;96.13
3796;BME280;1913;50.660;7.834;2022-09-11T13:08:13;97551.75;;;24.83;83.35
3796;BME280;1913;50.660;7.834;2022-09-11T13:10:40;97544.63;;;24.98;76.30
3796;BME280;1913;50.660;7.834;2022-09-11T13:16:27;97542.06;;;23.95;85.95
3796;BME280;1913;50.660;7.834;2022-09-11T13:21:27;97533.53;;;23.38;90.59
3796;BME280;1913;50.660;7.834;2022-09-11T13:24:01;97534.94;;;23.26;89.61
3796;BME280;1913;50.660;7.834;2022-09-11T13:26:30;97525.19;;;23.89;87.67
3796;BME280;1913;50.660;7.834;2022-09-11T13:28:59;97523.31;;;24.53;85.34
3796;BME280;1913;50.660;7.834;2022-09-11T13:31:33;97532.03;;;24.69;78.79
3796;BME280;1913;50.660;7.834;2022-09-11T13:34:02;97518.06;;;24.91;68.67
3796;BME280;1913;50.660;7.834;2022-09-11T13:36:29;97521.06;;;24.66;66.03
3796;BME280;1913;50.660;7.834;2022-09-11T13:39:00;97524.97;;;24.49;73.37
3796;BME280;1913;50.660;7.834;2022-09-11T13:41:29;97523.22;;;24.88;75.10
3796;BME280;1913;50.660;7.834;2022-09-11T13:43:58;97523.31;;;25.25;65.31
3796;BME280;1913;50.660;7.834;2022-09-11T13:46:26;97526.13;;;25.58;65.30
3796;BME280;1913;50.660;7.834;2022-09-11T13:51:31;97513.16;;;25.22;64.39
3796;BME280;1913;50.660;7.834;2022-09-11T14:04:50;97503.28;;;26.07;55.16
3796;BME280;1913;50.660;7.834;2022-09-11T14:07:23;97505.53;;;26.52;52.16
3796;BME280;1913;50.660;7.834;2022-09-11T14:10:07;97500.50;;;27.00;52.85
3796;BME280;1913;50.660;7.834;2022-09-11T14:18:32;97487.22;;;27.31;48.95
3796;BME280;1913;50.660;7.834;2022-09-11T14:21:01;97489.78;;;27.50;48.77
3796;BME280;1913;50.660;7.834;2022-09-11T14:23:29;97485.56;;;26.94;50.79
3796;BME280;1913;50.660;7.834;2022-09-11T14:29:22;97483.47;;;26.63;51.56
3796;BME280;1913;50.660;7.834;2022-09-11T14:31:49;97477.38;;;26.58;54.68
3796;BME280;1913;50.660;7.834;2022-09-11T14:34:28;97477.41;;;26.25;49.83
3796;BME280;1913;50.660;7.834;2022-09-11T14:39:57;97483.19;;;26.18;52.13
3796;BME280;1913;50.660;7.834;2022-09-11T14:42:26;97474.91;;;26.28;52.11
3796;BME280;1913;50.660;7.834;2022-09-11T14:44:53;97479.91;;;26.35;54.25
3796;BME280;1913;50.660;7.834;2022-09-11T14:47:21;97484.25;;;26.50;51.19
3796;BME280;1913;50.660;7.834;2022-09-11T14:49:50;97488.97;;;25.93;52.03
3796;BME280;1913;50.660;7.834;2022-09-11T14:52:20;97488.41;;;25.96;55.54
3796;BME280;1913;50.660;7.834;2022-09-11T14:54:47;97486.84;;;25.19;58.54
3796;BME280;1913;50.660;7.834;2022-09-11T14:57:20;97485.03;;;24.91;62.87
3796;BME280;1913;50.660;7.834;2022-09-11T14:59:52;97485.25;;;24.94;65.95
3796;BME280;1913;50.660;7.834;2022-09-11T15:02:20;97475.53;;;24.74;66.10
3796;BME280;1913;50.660;7.834;2022-09-11T15:04:48;97481.00;;;24.64;65.64
3796;BME280;1913;50.660;7.834;2022-09-11T15:07:14;97480.56;;;23.99;69.22
3796;BME280;1913;50.660;7.834;2022-09-11T15:09:41;97475.28;;;23.88;71.90
3796;BME280;1913;50.660;7.834;2022-09-11T15:12:08;97474.09;;;23.71;70.88
3796;BME280;1913;50.660;7.834;2022-09-11T15:14:34;97468.19;;;23.69;72.12
3796;BME280;1913;50.660;7.834;2022-09-11T15:17:01;97469.13;;;23.43;73.08
3796;BME280;1913;50.660;7.834;2022-09-11T15:19:29;97469.19;;;23.38;73.48
3796;BME280;1913;50.660;7.834;2022-09-11T15:21:56;97469.97;;;23.39;75.25
3796;BME280;1913;50.660;7.834;2022-09-11T15:24:25;97462.31;;;23.61;76.76
3796;BME280;1913;50.660;7.834;2022-09-11T15:26:51;97460.22;;;23.93;71.67
3796;BME280;1913;50.660;7.834;2022-09-11T15:29:21;97457.78;;;23.96;68.75
3796;BME280;1913;50.660;7.834;2022-09-11T15:31:47;97453.91;;;23.78;66.71
3796;BME280;1913;50.660;7.834;2022-09-11T15:34:14;97451.22;;;23.39;69.72
3796;BME280;1913;50.660;7.834;2022-09-11T15:36:40;97451.66;;;23.07;71.27
3796;BME280;1913;50.660;7.834;2022-09-11T15:39:09;97449.63;;;22.73;75.88
3796;BME280;1913;50.660;7.834;2022-09-11T15:41:36;97444.03;;;22.69;77.34
3796;BME280;1913;50.660;7.834;2022-09-11T15:44:09;97448.44;;;22.45;76.42
3796;BME280;1913;50.660;7.834;2022-09-11T15:46:35;97446.88;;;21.93;83.44
3796;BME280;1913;50.660;7.834;2022-09-11T15:49:01;97451.16;;;21.73;86.82
3796;BME280;1913;50.660;7.834;2022-09-11T15:51:28;97447.41;;;21.54;88.91
3796;BME280;1913;50.660;7.834;2022-09-11T15:53:58;97449.78;;;21.40;91.98
3796;BME280;1913;50.660;7.834;2022-09-11T15:56:23;97446.50;;;21.08;93.95
3796;BME280;1913;50.660;7.834;2022-09-11T15:58:49;97437.56;;;20.76;97.78
3796;BME280;1913;50.660;7.834;2022-09-11T16:01:21;97441.59;;;20.79;97.65
3796;BME280;1913;50.660;7.834;2022-09-11T16:03:56;97442.44;;;20.90;99.92
3796;BME280;1913;50.660;7.834;2022-09-11T16:06:26;97435.25;;;20.95;100.00
3796;BME280;1913;50.660;7.834;2022-09-11T16:08:56;97441.78;;;21.40;95.94